createdAt,value
2019-05-25T00:01:59.737Z,14.93
2019-05-25T00:04:28.702Z,13.90
2019-05-25T00:06:57.581Z,15.27
2019-05-25T00:09:26.308Z,15.13
2019-05-25T00:11:55.033Z,15.53
2019-05-25T00:14:24.065Z,15.70
2019-05-25T00:16:52.787Z,15.47
2019-05-25T00:19:21.512Z,15.93
2019-05-25T00:21:51.288Z,15.73
2019-05-25T00:24:20.026Z,14.93
2019-05-25T00:26:48.758Z,14.53
2019-05-25T00:29:17.542Z,15.33
2019-05-25T00:31:46.622Z,14.70
2019-05-25T00:34:15.343Z,14.30
2019-05-25T00:36:44.232Z,14.67
2019-05-25T00:39:12.955Z,14.17
2019-05-25T00:41:41.681Z,14.87
2019-05-25T00:44:10.659Z,15.30
2019-05-25T00:46:39.387Z,15.73
2019-05-25T00:49:08.115Z,14.83
2019-05-25T00:51:36.997Z,15.63
2019-05-25T00:54:05.724Z,15.30
2019-05-25T00:56:34.449Z,16.83
2019-05-25T00:59:03.216Z,15.77
2019-05-25T01:01:32.051Z,16.27
2019-05-25T01:04:00.777Z,15.80
2019-05-25T01:06:29.794Z,16.17
2019-05-25T01:08:58.515Z,16.50
2019-05-25T01:11:27.237Z,17.37
2019-05-25T01:13:56.201Z,16.47
2019-05-25T01:16:24.920Z,16.20
2019-05-25T01:18:53.648Z,15.83
2019-05-25T01:21:22.415Z,15.83
2019-05-25T01:23:51.144Z,15.80
2019-05-25T01:26:19.869Z,15.33
2019-05-25T01:28:48.646Z,16.20
2019-05-25T01:31:17.381Z,15.90
2019-05-25T01:33:46.096Z,15.83
2019-05-25T01:36:14.958Z,14.83
2019-05-25T01:38:43.691Z,15.13
2019-05-25T01:41:12.496Z,16.50
2019-05-25T01:43:41.260Z,14.90
2019-05-25T01:46:09.995Z,15.13
2019-05-25T01:48:38.724Z,15.90
2019-05-25T01:51:07.520Z,16.03
2019-05-25T01:53:36.247Z,15.20
2019-05-25T01:56:04.970Z,15.77
2019-05-25T01:58:33.761Z,15.13
2019-05-25T02:01:02.480Z,16.37
2019-05-25T02:03:31.207Z,14.77
2019-05-25T02:06:00.054Z,15.20
2019-05-25T02:08:28.842Z,15.97
2019-05-25T02:10:57.658Z,15.77
2019-05-25T02:13:26.703Z,14.03
2019-05-25T02:15:55.430Z,14.37
2019-05-25T02:18:24.162Z,14.13
2019-05-25T02:20:53.152Z,14.87
2019-05-25T02:23:21.977Z,15.33
2019-05-25T02:25:50.705Z,15.33
2019-05-25T02:28:19.563Z,14.93
2019-05-25T02:30:48.288Z,13.87
2019-05-25T02:33:17.038Z,14.53
2019-05-25T02:35:45.820Z,14.33
2019-05-25T02:38:14.544Z,14.00
2019-05-25T02:40:43.271Z,13.53
2019-05-25T02:43:12.250Z,13.17
2019-05-25T02:45:41.074Z,13.20
2019-05-25T02:48:09.809Z,13.13
2019-05-25T02:50:38.671Z,12.97
2019-05-25T02:53:07.405Z,13.30
2019-05-25T02:55:36.123Z,12.73
2019-05-25T02:58:04.986Z,12.30
2019-05-25T03:00:35.217Z,13.00
2019-05-25T03:03:05.687Z,12.20
2019-05-25T03:05:34.529Z,12.37
2019-05-25T03:08:03.323Z,12.40
2019-05-25T03:10:32.718Z,12.53
2019-05-25T03:13:03.093Z,12.27
2019-05-25T03:15:31.925Z,11.60
2019-05-25T03:18:00.872Z,11.70
2019-05-25T03:20:29.746Z,11.97
2019-05-25T03:22:58.474Z,11.67
2019-05-25T03:25:27.199Z,12.10
2019-05-25T03:27:55.984Z,12.27
2019-05-25T03:30:30.647Z,12.37
2019-05-25T03:32:59.382Z,11.60
2019-05-25T03:35:28.142Z,11.20
2019-05-25T03:37:56.982Z,11.07
2019-05-25T03:40:25.820Z,10.93
2019-05-25T03:42:54.706Z,10.97
2019-05-25T03:45:23.434Z,10.70
2019-05-25T03:47:52.173Z,11.77
2019-05-25T03:50:22.617Z,10.90
2019-05-25T03:52:51.344Z,9.83
2019-05-25T03:55:20.070Z,10.40
2019-05-25T03:57:48.934Z,9.33
2019-05-25T04:00:20.579Z,9.93
2019-05-25T04:02:49.300Z,9.60
2019-05-25T04:05:18.064Z,10.50
2019-05-25T04:07:46.785Z,9.80
2019-05-25T04:10:15.507Z,9.43
2019-05-25T04:12:44.369Z,9.70
2019-05-25T04:15:13.087Z,9.40
2019-05-25T04:17:41.809Z,9.37
2019-05-25T04:20:10.981Z,9.73
2019-05-25T04:22:39.699Z,9.80
2019-05-25T04:25:08.419Z,9.33
2019-05-25T04:27:37.305Z,9.67
2019-05-25T04:30:07.149Z,9.60
2019-05-25T04:32:35.864Z,10.10
2019-05-25T04:35:06.443Z,9.40
2019-05-25T04:37:35.172Z,9.30
2019-05-25T04:40:05.507Z,9.03
2019-05-25T04:42:34.374Z,9.37
2019-05-25T04:45:03.195Z,9.00
2019-05-25T04:47:31.956Z,10.17
2019-05-25T04:50:00.689Z,9.70
2019-05-25T04:52:29.416Z,9.80
2019-05-25T04:54:58.151Z,10.60
2019-05-25T04:57:26.907Z,8.70
2019-05-25T04:59:55.629Z,8.43
2019-05-25T05:02:24.356Z,7.90
2019-05-25T05:04:53.100Z,7.43
2019-05-25T05:07:21.819Z,7.60
2019-05-25T05:10:02.137Z,7.23
2019-05-25T05:12:21.060Z,7.60
2019-05-25T05:14:49.821Z,7.03
2019-05-25T05:17:18.548Z,6.53
2019-05-25T05:19:47.420Z,7.60
2019-05-25T05:22:16.133Z,7.47
2019-05-25T05:24:45.177Z,6.80
2019-05-25T05:27:14.095Z,7.53
2019-05-25T05:29:42.816Z,7.23
2019-05-25T05:32:24.909Z,7.13
2019-05-25T05:34:42.044Z,7.00
2019-05-25T05:37:11.562Z,7.20
2019-05-25T05:39:42.083Z,7.50
2019-05-25T05:42:14.414Z,7.43
2019-05-25T05:44:45.673Z,7.83
2019-05-25T05:47:16.797Z,7.87
2019-05-25T05:49:47.453Z,7.40
2019-05-25T05:52:18.140Z,6.60
2019-05-25T05:54:48.706Z,6.10
2019-05-25T05:57:17.568Z,6.40
2019-05-25T05:59:46.287Z,6.70
2019-05-25T06:02:15.014Z,6.27
2019-05-25T06:04:43.827Z,6.60
2019-05-25T06:07:12.543Z,6.63
2019-05-25T06:09:41.267Z,6.30
2019-05-25T06:12:10.117Z,6.50
2019-05-25T06:14:38.835Z,6.90
2019-05-25T06:17:07.555Z,6.57
2019-05-25T06:19:36.305Z,6.07
2019-05-25T06:22:05.040Z,6.17
2019-05-25T06:24:33.753Z,6.20
2019-05-25T06:27:02.609Z,6.33
2019-05-25T06:29:31.325Z,6.10
2019-05-25T06:32:00.054Z,5.03
2019-05-25T06:34:28.805Z,5.23
2019-05-25T06:36:57.621Z,6.20
2019-05-25T06:39:26.311Z,5.87
2019-05-25T06:41:55.096Z,6.27
2019-05-25T06:44:23.813Z,6.50
2019-05-25T06:46:52.530Z,7.00
2019-05-25T06:49:21.287Z,6.80
2019-05-25T06:51:50.017Z,5.70
2019-05-25T06:54:18.744Z,5.90
2019-05-25T06:56:47.616Z,6.10
2019-05-25T06:59:16.343Z,6.00
2019-05-25T07:01:45.255Z,5.80
2019-05-25T07:04:14.136Z,5.37
2019-05-25T07:06:42.860Z,5.03
2019-05-25T07:09:11.580Z,5.67
2019-05-25T07:11:40.508Z,5.10
2019-05-25T07:14:10.136Z,5.63
2019-05-25T07:16:38.850Z,5.20
2019-05-25T07:19:07.827Z,4.53
2019-05-25T07:21:36.549Z,4.33
2019-05-25T07:24:05.464Z,4.63
2019-05-25T07:26:34.321Z,4.60
2019-05-25T07:29:03.033Z,4.33
2019-05-25T07:31:31.763Z,4.00
2019-05-25T07:34:00.608Z,4.30
2019-05-25T07:36:29.331Z,3.63
2019-05-25T07:38:58.065Z,3.60
2019-05-25T07:41:27.503Z,3.70
2019-05-25T07:43:56.229Z,3.10
2019-05-25T07:46:24.950Z,3.20
2019-05-25T07:48:53.710Z,3.47
2019-05-25T07:51:22.430Z,3.50
2019-05-25T07:53:51.154Z,3.67
2019-05-25T07:56:20.126Z,3.30
2019-05-25T07:58:48.858Z,3.47
2019-05-25T08:01:17.579Z,2.83
2019-05-25T08:03:46.489Z,3.30
2019-05-25T08:06:15.189Z,3.23
2019-05-25T08:08:51.087Z,2.97
2019-05-25T08:11:19.803Z,3.23
2019-05-25T08:13:48.527Z,3.27
2019-05-25T08:16:17.290Z,3.23
2019-05-25T08:18:46.023Z,3.43
2019-05-25T08:21:14.798Z,3.00
2019-05-25T08:23:43.675Z,3.17
2019-05-25T08:26:12.417Z,3.00
2019-05-25T08:28:41.130Z,3.00
2019-05-25T08:31:09.941Z,2.67
2019-05-25T08:33:38.663Z,2.70
2019-05-25T08:36:07.395Z,2.57
2019-05-25T08:38:36.211Z,3.00
2019-05-25T08:41:04.932Z,2.20
2019-05-25T08:43:33.654Z,2.30
2019-05-25T08:46:02.499Z,2.23
2019-05-25T08:48:31.224Z,2.10
2019-05-25T08:50:59.961Z,2.20
2019-05-25T08:53:40.774Z,2.20
2019-05-25T08:56:00.367Z,1.67
2019-05-25T08:58:29.093Z,1.80
2019-05-25T09:00:57.849Z,1.80
2019-05-25T09:03:26.581Z,1.63
2019-05-25T09:05:55.297Z,2.10
2019-05-25T09:08:24.114Z,1.97
2019-05-25T09:10:52.845Z,1.70
2019-05-25T09:13:21.564Z,1.70
2019-05-25T09:15:50.433Z,1.90
2019-05-25T09:18:19.155Z,2.00
2019-05-25T09:20:47.872Z,2.00
2019-05-25T09:23:16.765Z,1.60
2019-05-25T09:25:45.780Z,1.50
2019-05-25T09:28:14.505Z,2.00
2019-05-25T09:30:43.384Z,1.53
2019-05-25T09:33:12.111Z,1.90
2019-05-25T09:35:40.821Z,2.03
2019-05-25T09:38:09.862Z,1.80
2019-05-25T09:40:38.588Z,1.77
2019-05-25T09:43:07.300Z,2.20
2019-05-25T09:45:36.066Z,2.03
2019-05-25T09:48:04.782Z,2.07
2019-05-25T09:50:33.495Z,1.80
2019-05-25T09:53:02.301Z,2.00
2019-05-25T09:55:31.043Z,2.13
2019-05-25T09:57:59.754Z,1.80
2019-05-25T10:00:29.038Z,1.60
2019-05-25T10:02:57.760Z,1.93
2019-05-25T10:05:26.501Z,2.10
2019-05-25T10:07:55.360Z,2.67
2019-05-25T10:10:24.477Z,1.90
2019-05-25T10:12:53.205Z,2.13
2019-05-25T10:15:22.184Z,1.90
2019-05-25T10:17:50.938Z,2.00
2019-05-25T10:20:19.758Z,2.00
2019-05-25T10:25:50.198Z,2.07
2019-05-25T10:28:18.986Z,2.40
2019-05-25T10:30:47.702Z,2.00
2019-05-25T10:33:43.712Z,2.70
2019-05-25T10:36:13.004Z,1.80
2019-05-25T10:38:41.730Z,2.30
2019-05-25T10:41:10.600Z,1.63
2019-05-25T10:43:39.319Z,1.80
2019-05-25T10:46:08.046Z,2.10
2019-05-25T10:48:36.849Z,2.10
2019-05-25T10:51:06.884Z,2.00
2019-05-25T10:53:35.559Z,1.97
2019-05-25T10:56:04.562Z,2.30
2019-05-25T10:58:33.327Z,1.77
2019-05-25T11:01:02.042Z,2.03
2019-05-25T11:03:30.901Z,1.97
2019-05-25T11:05:59.616Z,1.87
2019-05-25T11:08:29.908Z,1.80
2019-05-25T11:10:58.774Z,1.77
2019-05-25T11:13:27.490Z,2.00
2019-05-25T11:15:58.736Z,2.30
2019-05-25T11:18:27.503Z,2.07
2019-05-25T11:20:56.216Z,2.50
2019-05-25T11:23:24.939Z,3.43
2019-05-25T11:25:56.780Z,2.60
2019-05-25T11:28:25.582Z,2.57
2019-05-25T11:30:54.293Z,2.43
2019-05-25T11:33:23.165Z,2.37
2019-05-25T11:35:51.886Z,2.70
2019-05-25T11:38:20.607Z,2.80
2019-05-25T11:40:50.672Z,2.40
2019-05-25T11:43:19.384Z,2.40
2019-05-25T11:45:48.113Z,3.17
2019-05-25T11:48:18.039Z,2.67
2019-05-25T11:50:46.761Z,2.80
2019-05-25T11:53:15.479Z,2.40
2019-05-25T11:55:44.243Z,2.90
2019-05-25T11:58:12.963Z,2.50
2019-05-25T12:00:41.670Z,1.90
2019-05-25T12:03:10.443Z,1.77
2019-05-25T12:05:39.167Z,2.10
2019-05-25T12:08:07.952Z,2.00
2019-05-25T12:10:36.716Z,1.90
2019-05-25T12:13:05.437Z,1.90
2019-05-25T12:15:34.267Z,1.90
2019-05-25T12:18:03.324Z,1.73
2019-05-25T12:20:32.047Z,1.67
2019-05-25T12:23:00.903Z,2.00
2019-05-25T12:25:29.910Z,2.10
2019-05-25T12:27:58.660Z,1.87
2019-05-25T12:30:39.755Z,1.60
2019-05-25T12:32:58.031Z,1.93
2019-05-25T12:35:26.753Z,1.90
2019-05-25T12:37:55.486Z,1.90
2019-05-25T12:40:24.442Z,1.70
2019-05-25T12:42:53.167Z,4.13
2019-05-25T12:45:24.288Z,3.07
2019-05-25T12:47:53.958Z,2.70
2019-05-25T12:50:22.882Z,2.47
2019-05-25T12:52:51.594Z,2.57
2019-05-25T12:55:20.348Z,2.40
2019-05-25T12:57:51.395Z,2.37
2019-05-25T13:00:19.510Z,1.83
2019-05-25T13:02:48.264Z,1.70
2019-05-25T13:05:16.986Z,1.70
2019-05-25T13:07:45.719Z,2.00
2019-05-25T13:10:15.008Z,2.50
2019-05-25T13:12:43.724Z,2.17
2019-05-25T13:15:16.052Z,2.00
2019-05-25T13:17:44.891Z,1.90
2019-05-25T13:20:14.804Z,1.50
2019-05-25T13:22:43.531Z,1.53
2019-05-25T13:25:13.590Z,1.53
2019-05-25T13:27:42.306Z,1.80
2019-05-25T13:30:11.617Z,1.23
2019-05-25T13:32:40.589Z,1.60
2019-05-25T13:35:09.603Z,1.80
2019-05-25T13:37:38.425Z,1.53
2019-05-25T13:40:07.593Z,1.60
2019-05-25T13:42:36.322Z,1.60
2019-05-25T13:45:10.895Z,1.60
2019-05-25T13:47:39.760Z,1.57
2019-05-25T13:50:09.688Z,1.80
2019-05-25T13:52:38.431Z,1.33
2019-05-25T13:55:07.698Z,1.30
2019-05-25T13:57:36.413Z,1.33
2019-05-25T14:00:07.394Z,1.60
2019-05-25T14:02:36.267Z,1.10
2019-05-25T14:05:06.785Z,1.17
2019-05-25T14:07:35.495Z,0.93
2019-05-25T14:10:06.311Z,1.10
2019-05-25T14:12:36.178Z,1.30
2019-05-25T14:15:07.073Z,1.00
2019-05-25T14:17:36.548Z,0.90
2019-05-25T14:20:07.144Z,1.20
2019-05-25T14:22:35.856Z,1.20
2019-05-25T14:25:06.642Z,1.10
2019-05-25T14:27:35.357Z,1.20
2019-05-25T14:30:05.707Z,0.93
2019-05-25T14:32:34.713Z,1.00
2019-05-25T14:35:03.787Z,0.90
2019-05-25T14:37:32.498Z,1.17
2019-05-25T14:40:01.267Z,1.20
2019-05-25T14:42:29.978Z,1.30
2019-05-25T14:45:03.183Z,1.10
2019-05-25T14:47:33.012Z,1.50
2019-05-25T14:50:01.740Z,1.30
2019-05-25T14:52:30.560Z,1.20
2019-05-25T14:54:59.341Z,1.13
2019-05-25T14:57:28.067Z,1.40
2019-05-25T14:59:56.789Z,1.50
2019-05-25T15:02:25.626Z,1.23
2019-05-25T15:04:54.356Z,1.43
2019-05-25T15:07:23.076Z,1.17
2019-05-25T15:09:51.876Z,1.10
2019-05-25T15:12:21.108Z,1.43
2019-05-25T15:14:49.815Z,1.07
2019-05-25T15:17:18.679Z,1.20
2019-05-25T15:19:47.405Z,1.20
2019-05-25T15:22:16.290Z,1.40
2019-05-25T15:24:45.082Z,1.17
2019-05-25T15:27:13.829Z,1.47
2019-05-25T15:29:42.545Z,1.40
2019-05-25T15:32:20.039Z,1.47
2019-05-25T15:34:42.074Z,2.10
2019-05-25T15:37:10.825Z,2.20
2019-05-25T15:39:39.586Z,2.93
2019-05-25T15:42:08.335Z,1.77
2019-05-25T15:44:37.011Z,1.77
2019-05-25T15:47:05.979Z,1.90
2019-05-25T15:49:34.694Z,3.63
2019-05-25T15:52:03.428Z,4.63
2019-05-25T15:54:32.331Z,4.50
2019-05-25T15:57:01.048Z,3.30
2019-05-25T15:59:29.771Z,2.13
2019-05-25T16:01:58.538Z,1.87
2019-05-25T16:04:27.253Z,1.83
2019-05-25T16:06:55.997Z,1.90
2019-05-25T16:09:24.877Z,3.50
2019-05-25T16:11:53.592Z,4.90
2019-05-25T16:14:22.331Z,2.20
2019-05-25T16:16:51.442Z,2.00
2019-05-25T16:19:20.158Z,3.07
2019-05-25T16:21:48.886Z,2.13
2019-05-25T16:24:17.808Z,2.43
2019-05-25T16:26:46.866Z,2.40
2019-05-25T16:29:15.660Z,2.37
2019-05-25T16:31:44.599Z,2.30
2019-05-25T16:34:13.314Z,2.20
2019-05-25T16:36:42.141Z,2.77
2019-05-25T16:39:11.249Z,2.57
2019-05-25T16:41:39.991Z,2.87
2019-05-25T16:44:08.708Z,2.40
2019-05-25T16:46:37.596Z,2.90
2019-05-25T16:49:06.330Z,2.73
2019-05-25T16:51:35.132Z,2.40
2019-05-25T16:54:03.926Z,2.43
2019-05-25T16:56:32.678Z,2.40
2019-05-25T16:59:01.409Z,3.40
2019-05-25T17:01:46.809Z,3.40
2019-05-25T17:04:00.591Z,2.80
2019-05-25T17:06:29.322Z,4.30
2019-05-25T17:08:58.487Z,3.33
2019-05-25T17:11:27.198Z,3.57
2019-05-25T17:13:55.923Z,2.63
2019-05-25T17:16:24.802Z,2.90
2019-05-25T17:18:53.523Z,3.97
2019-05-25T17:21:22.248Z,3.20
2019-05-25T17:23:51.171Z,3.87
2019-05-25T17:26:19.925Z,4.00
2019-05-25T17:28:48.643Z,5.00
2019-05-25T17:31:17.428Z,6.00
2019-05-25T17:33:46.742Z,6.50
2019-05-25T17:36:15.559Z,7.50
2019-05-25T17:38:44.318Z,9.33
2019-05-25T17:41:13.173Z,4.50
2019-05-25T17:43:41.927Z,3.90
2019-05-25T17:46:10.794Z,4.57
2019-05-25T17:48:39.543Z,5.03
2019-05-25T17:51:08.244Z,5.57
2019-05-25T17:53:37.005Z,4.43
2019-05-25T17:56:05.824Z,3.83
2019-05-25T17:58:34.551Z,3.10
2019-05-25T18:01:03.503Z,3.60
2019-05-25T18:03:32.243Z,3.50
2019-05-25T18:06:00.943Z,3.40
2019-05-25T18:08:29.850Z,6.50
2019-05-25T18:10:58.568Z,7.47
2019-05-25T18:13:29.024Z,9.17
2019-05-25T18:15:57.879Z,7.43
2019-05-25T18:18:26.628Z,7.57
2019-05-25T18:20:55.355Z,5.90
2019-05-25T18:23:24.309Z,4.90
2019-05-25T18:25:53.062Z,4.30
2019-05-25T18:28:21.749Z,4.27
2019-05-25T18:30:50.602Z,4.00
2019-05-25T18:33:19.336Z,5.77
2019-05-25T18:35:48.063Z,7.60
2019-05-25T18:38:17.032Z,7.50
2019-05-25T18:40:45.802Z,6.87
2019-05-25T18:43:14.670Z,6.73
2019-05-25T18:45:43.546Z,6.47
2019-05-25T18:48:12.291Z,6.80
2019-05-25T18:50:41.047Z,6.77
2019-05-25T18:53:09.896Z,5.97
2019-05-25T18:55:38.620Z,5.77
2019-05-25T18:58:07.334Z,4.40
2019-05-25T19:00:36.099Z,4.67
2019-05-25T19:03:04.922Z,5.10
2019-05-25T19:05:33.702Z,5.00
2019-05-25T19:08:02.637Z,4.40
2019-05-25T19:10:31.334Z,4.00
2019-05-25T19:13:00.053Z,7.93
2019-05-25T19:15:29.007Z,5.00
2019-05-25T19:17:57.757Z,4.50
2019-05-25T19:20:26.595Z,4.43
2019-05-25T19:22:55.333Z,4.73
2019-05-25T19:25:24.057Z,4.63
2019-05-25T19:27:52.788Z,4.83
2019-05-25T19:30:22.614Z,5.60
2019-05-25T19:32:51.342Z,5.57
2019-05-25T19:35:20.075Z,6.37
2019-05-25T19:37:48.943Z,5.60
2019-05-25T19:40:17.682Z,6.23
2019-05-25T19:42:49.761Z,7.30
2019-05-25T19:45:17.261Z,7.20
2019-05-25T19:47:46.016Z,7.97
2019-05-25T19:50:15.046Z,8.10
2019-05-25T19:52:43.928Z,8.03
2019-05-25T19:55:12.944Z,12.83
2019-05-25T19:57:45.728Z,14.03
2019-05-25T20:00:15.097Z,18.83
2019-05-25T20:02:43.820Z,9.10
2019-05-25T20:05:16.722Z,7.70
2019-05-25T20:07:43.246Z,6.73
2019-05-25T20:10:12.668Z,6.30
2019-05-25T20:12:41.382Z,5.47
2019-05-25T20:15:10.463Z,5.27
2019-05-25T20:17:39.190Z,5.97
2019-05-25T20:20:08.499Z,6.50
2019-05-25T20:22:37.455Z,6.20
2019-05-25T20:25:07.135Z,6.50
2019-05-25T20:27:38.640Z,6.00
2019-05-25T20:30:08.235Z,5.73
2019-05-25T20:32:36.952Z,7.17
2019-05-25T20:35:08.990Z,7.13
2019-05-25T20:37:37.921Z,6.10
2019-05-25T20:40:08.016Z,6.23
2019-05-25T20:42:36.970Z,5.73
2019-05-25T20:45:08.172Z,5.10
2019-05-25T20:47:37.030Z,5.27
2019-05-25T20:50:07.759Z,6.00
2019-05-25T20:52:36.896Z,5.50
2019-05-25T20:55:08.103Z,5.60
2019-05-25T20:57:36.821Z,5.80
2019-05-25T21:00:09.849Z,6.40
2019-05-25T21:02:38.556Z,8.83
2019-05-25T21:05:08.185Z,8.50
2019-05-25T21:07:36.973Z,8.80
2019-05-25T21:10:09.108Z,10.90
2019-05-25T21:12:37.823Z,8.57
2019-05-25T21:15:08.459Z,9.73
2019-05-25T21:17:37.190Z,8.10
2019-05-25T21:20:07.004Z,7.83
2019-05-25T21:22:35.803Z,7.70
2019-05-25T21:25:09.504Z,7.00
2019-05-25T21:27:38.230Z,7.13
2019-05-25T21:30:09.697Z,6.80
2019-05-25T21:32:38.413Z,6.53
2019-05-25T21:35:08.518Z,6.73
2019-05-25T21:37:37.360Z,6.27
2019-05-25T21:40:09.232Z,5.97
2019-05-25T21:42:37.945Z,6.70
2019-05-25T21:45:07.596Z,6.23
2019-05-25T21:47:36.319Z,6.70
2019-05-25T21:50:07.251Z,6.23
2019-05-25T21:52:36.408Z,6.00
2019-05-25T21:55:06.067Z,6.07
2019-05-25T21:57:34.815Z,5.93
2019-05-25T22:00:06.359Z,6.13
2019-05-25T22:02:35.080Z,6.13
2019-05-25T22:05:05.006Z,6.30
2019-05-25T22:07:33.796Z,6.53
2019-05-25T22:10:02.530Z,6.13
2019-05-25T22:12:31.259Z,5.83
2019-05-25T22:15:00.131Z,6.00
2019-05-25T22:17:28.852Z,6.30
2019-05-25T22:19:57.571Z,7.63
2019-05-25T22:22:26.434Z,7.70
2019-05-25T22:24:55.160Z,7.53
2019-05-25T22:27:23.871Z,7.10
2019-05-25T22:29:52.735Z,6.90
2019-05-25T22:32:21.455Z,6.63
2019-05-25T22:34:50.173Z,5.97
2019-05-25T22:37:18.958Z,5.50
2019-05-25T22:39:47.673Z,5.67
2019-05-25T22:42:16.386Z,5.23
2019-05-25T22:44:45.174Z,4.90
2019-05-25T22:47:13.989Z,4.80
2019-05-25T22:49:42.691Z,4.30
2019-05-25T22:52:11.515Z,4.83
2019-05-25T22:54:40.225Z,4.33
2019-05-25T22:57:08.945Z,4.43
2019-05-25T22:59:37.968Z,4.47
2019-05-25T23:02:06.688Z,4.80
2019-05-25T23:04:35.415Z,4.63
2019-05-25T23:07:04.207Z,4.40
2019-05-25T23:09:34.502Z,4.50
2019-05-25T23:12:03.222Z,5.33
2019-05-25T23:14:31.964Z,4.67
2019-05-25T23:17:00.748Z,4.80
2019-05-25T23:19:29.488Z,5.13
2019-05-25T23:21:58.345Z,5.53
2019-05-25T23:24:27.074Z,9.47
2019-05-25T23:26:55.799Z,14.10
2019-05-25T23:29:24.645Z,7.73
2019-05-25T23:31:53.376Z,6.70
2019-05-25T23:34:22.094Z,6.20
2019-05-25T23:36:50.892Z,5.80
2019-05-25T23:39:19.602Z,5.33
2019-05-25T23:41:48.319Z,5.63
2019-05-25T23:44:17.203Z,5.60
2019-05-25T23:46:45.932Z,5.73
2019-05-25T23:49:14.643Z,6.40
2019-05-25T23:51:43.530Z,4.97
2019-05-25T23:54:12.293Z,5.53
2019-05-25T23:56:41.011Z,5.13
2019-05-25T23:59:09.798Z,5.70
